Time;durP1;ratioP1;P1;durP2;ratioP2;P2;SDS_P1;SDS_P2;PMS_P1;PMS_P2;Temp;Humidity;BMP_temperature;BMP_pressure;BME280_temperature;BME280_humidity;BME280_pressure;Samples;Min_cycle;Max_cycle;Signal;HPM_P1;HPM_P2
2023/08/25 00:01:26;;;;;;;8.73;8.03;;;22.00;99.90;;;;;;919213;152;27471;-71
2023/08/25 00:03:53;;;;;;;8.75;7.92;;;21.90;99.90;;;;;;920660;152;27356;-74
2023/08/25 00:06:19;;;;;;;8.55;7.65;;;21.90;99.90;;;;;;920533;152;27345;-70
2023/08/25 00:08:46;;;;;;;7.92;7.22;;;21.90;99.90;;;;;;918746;152;27444;-71
2023/08/25 00:11:12;;;;;;;8.73;7.97;;;21.90;99.90;;;;;;935202;149;27324;-71
2023/08/25 00:13:39;;;;;;;8.25;7.55;;;21.80;99.90;;;;;;934204;149;27357;-74
2023/08/25 00:16:06;;;;;;;8.43;7.83;;;21.80;99.90;;;;;;919733;153;27364;-72
2023/08/25 00:18:32;;;;;;;8.50;7.80;;;21.80;99.90;;;;;;936806;149;27475;-74
2023/08/25 00:20:59;;;;;;;8.03;7.22;;;21.70;99.90;;;;;;920630;152;27288;-70
2023/08/25 00:23:25;;;;;;;9.53;8.70;;;21.70;99.90;;;;;;917907;152;27433;-73
2023/08/25 00:25:53;;;;;;;8.08;7.47;;;21.70;99.90;;;;;;919307;153;27724;-72
2023/08/25 00:28:19;;;;;;;7.33;6.72;;;21.70;99.90;;;;;;919172;152;28846;-70
2023/08/25 00:30:45;;;;;;;7.67;7.08;;;21.60;99.90;;;;;;918791;152;27398;-72
2023/08/25 00:33:12;;;;;;;8.78;6.97;;;21.60;99.90;;;;;;920485;152;27344;-72
2023/08/25 00:35:38;;;;;;;8.28;7.58;;;21.60;99.90;;;;;;920559;152;27359;-74
2023/08/25 00:38:05;;;;;;;8.43;7.62;;;21.60;99.90;;;;;;938147;149;27434;-71
2023/08/25 00:40:34;;;;;;;8.88;8.23;;;21.50;99.90;;;;;;920118;152;27445;-70
2023/08/25 00:43:01;;;;;;;8.93;8.13;;;21.50;99.90;;;;;;939493;148;27456;-71
2023/08/25 00:45:28;;;;;;;8.90;8.20;;;21.50;99.90;;;;;;931526;151;27434;-74
2023/08/25 00:47:54;;;;;;;8.55;7.87;;;21.50;99.90;;;;;;926682;154;27560;-71
2023/08/25 00:50:21;;;;;;;8.65;7.85;;;21.40;99.90;;;;;;926500;152;27414;-71
2023/08/25 00:52:47;;;;;;;8.33;7.72;;;21.40;99.90;;;;;;941281;149;27394;-71
2023/08/25 00:55:14;;;;;;;8.38;7.58;;;21.40;99.90;;;;;;940956;152;27847;-72
2023/08/25 00:57:40;;;;;;;8.00;7.30;;;21.40;99.90;;;;;;941172;149;27397;-74
2023/08/25 01:00:09;;;;;;;20.12;9.80;;;21.40;99.90;;;;;;937892;149;27372;-71
2023/08/25 01:02:34;;;;;;;49.93;13.13;;;21.40;99.90;;;;;;937671;149;27369;-70
2023/08/25 01:05:00;;;;;;;37.20;13.95;;;21.40;99.90;;;;;;937288;151;27361;-71
2023/08/25 01:07:27;;;;;;;25.08;14.98;;;21.40;99.90;;;;;;938087;149;27453;-73
2023/08/25 01:09:54;;;;;;;37.30;15.53;;;21.40;99.90;;;;;;937628;151;27413;-71
2023/08/25 01:12:20;;;;;;;45.65;13.78;;;21.40;99.90;;;;;;937889;151;27305;-71
2023/08/25 01:15:02;;;;;;;59.42;15.80;;;21.40;99.90;;;;;;936695;150;27320;-70
2023/08/25 01:17:40;;;;;;;33.08;15.25;;;21.40;99.90;;;;;;937606;149;27402;-76
2023/08/25 01:20:07;;;;;;;25.27;15.13;;;21.40;99.90;;;;;;937031;151;27396;-77
2023/08/25 01:22:36;;;;;;;23.57;16.30;;;21.30;99.90;;;;;;937465;151;27345;-72
2023/08/25 01:25:25;;;;;;;21.73;15.80;;;21.30;99.90;;;;;;936199;149;27356;-72
2023/08/25 01:27:51;;;;;;;26.33;15.63;;;21.30;99.90;;;;;;915936;154;27296;-73
2023/08/25 01:30:17;;;;;;;31.45;15.63;;;21.30;99.90;;;;;;930112;151;27426;-76
2023/08/25 01:32:45;;;;;;;27.17;16.07;;;21.30;99.90;;;;;;944971;149;27445;-73
2023/08/25 01:35:14;;;;;;;17.60;15.10;;;21.30;99.90;;;;;;943168;149;27393;-74
2023/08/25 01:37:37;;;;;;;22.13;14.33;;;21.40;99.90;;;;;;929854;153;27339;-73
2023/08/25 01:40:06;;;;;;;20.65;14.03;;;21.40;99.90;;;;;;928992;151;27378;-75
2023/08/25 01:42:30;;;;;;;16.15;14.60;;;21.40;99.90;;;;;;926384;151;27457;-75
2023/08/25 01:44:57;;;;;;;16.67;15.08;;;21.40;99.90;;;;;;920883;152;27359;-75
2023/08/25 01:47:24;;;;;;;18.07;14.68;;;21.40;99.90;;;;;;939932;149;27435;-75
2023/08/25 01:49:50;;;;;;;17.02;15.28;;;21.40;99.90;;;;;;930994;150;27374;-75
2023/08/25 01:52:17;;;;;;;16.23;14.20;;;21.40;99.90;;;;;;932055;150;27415;-75
2023/08/25 01:54:43;;;;;;;16.75;14.90;;;21.40;99.90;;;;;;932228;150;27458;-75
2023/08/25 01:57:10;;;;;;;19.42;15.60;;;21.40;99.90;;;;;;930058;150;27306;-75
2023/08/25 01:59:36;;;;;;;16.32;14.87;;;21.40;99.90;;;;;;919534;152;27743;-75
2023/08/25 02:02:03;;;;;;;16.20;14.60;;;21.40;99.90;;;;;;918024;153;27370;-75
2023/08/25 02:04:30;;;;;;;22.20;15.45;;;21.40;99.90;;;;;;931327;151;27501;-75
2023/08/25 02:06:56;;;;;;;16.50;14.93;;;21.40;99.90;;;;;;930021;151;27260;-75
2023/08/25 02:09:23;;;;;;;41.50;19.05;;;21.40;99.90;;;;;;929953;151;27367;-75
2023/08/25 02:11:49;;;;;;;38.67;17.32;;;21.40;99.90;;;;;;929923;151;27406;-75
2023/08/25 02:14:16;;;;;;;54.08;18.80;;;21.40;99.90;;;;;;930816;151;27512;-75
2023/08/25 02:16:43;;;;;;;54.93;16.85;;;21.40;99.90;;;;;;929080;151;27783;-75
2023/08/25 02:19:09;;;;;;;33.67;14.58;;;21.40;99.90;;;;;;929337;151;27526;-75
2023/08/25 02:21:36;;;;;;;22.07;14.85;;;21.50;99.90;;;;;;930105;151;27297;-75
2023/08/25 02:24:02;;;;;;;24.02;14.28;;;21.40;99.90;;;;;;929899;151;27364;-75
2023/08/25 02:26:29;;;;;;;20.52;14.98;;;21.40;99.90;;;;;;930335;151;27355;-74
2023/08/25 02:28:56;;;;;;;26.42;13.80;;;21.40;99.90;;;;;;930567;151;27381;-75
2023/08/25 02:31:22;;;;;;;17.37;12.95;;;21.40;99.90;;;;;;929193;151;27355;-75
2023/08/25 02:33:49;;;;;;;54.55;15.70;;;21.50;99.90;;;;;;930259;150;27407;-75
2023/08/25 02:36:15;;;;;;;26.12;13.38;;;21.40;99.90;;;;;;930716;151;27460;-75
2023/08/25 02:38:42;;;;;;;19.67;13.48;;;21.40;99.90;;;;;;929590;151;27349;-75
2023/08/25 02:41:08;;;;;;;14.75;13.22;;;21.40;99.90;;;;;;929521;151;27360;-75
2023/08/25 02:43:35;;;;;;;15.40;12.28;;;21.40;99.90;;;;;;920279;151;27378;-76
2023/08/25 02:46:02;;;;;;;15.78;12.60;;;21.40;99.90;;;;;;943088;151;27427;-74
2023/08/25 02:48:28;;;;;;;28.07;13.80;;;21.40;99.90;;;;;;943293;150;28779;-75
2023/08/25 02:50:55;;;;;;;24.05;12.75;;;21.40;99.90;;;;;;940707;152;27278;-76
2023/08/25 02:53:22;;;;;;;29.05;12.25;;;21.50;99.90;;;;;;941069;149;27300;-76
2023/08/25 02:55:48;;;;;;;13.60;11.22;;;21.50;99.90;;;;;;940917;152;27452;-76
2023/08/25 02:58:15;;;;;;;29.82;12.63;;;21.50;99.90;;;;;;941284;152;27368;-76
2023/08/25 03:00:41;;;;;;;53.00;14.43;;;21.50;99.90;;;;;;940560;152;28022;-76
2023/08/25 03:03:08;;;;;;;33.55;13.50;;;21.50;99.90;;;;;;940982;152;27321;-76
2023/08/25 03:05:35;;;;;;;40.15;14.28;;;21.50;99.90;;;;;;940851;152;27728;-76
2023/08/25 03:08:01;;;;;;;33.13;13.90;;;21.60;99.90;;;;;;941032;149;27402;-76
2023/08/25 03:10:28;;;;;;;29.92;14.25;;;21.60;99.90;;;;;;940201;149;27428;-76
2023/08/25 03:12:54;;;;;;;38.78;14.38;;;21.60;99.90;;;;;;941112;151;27313;-76
2023/08/25 03:15:21;;;;;;;32.80;14.07;;;21.60;99.90;;;;;;940640;149;27301;-76
2023/08/25 03:17:47;;;;;;;27.60;13.90;;;21.70;99.90;;;;;;927422;152;27421;-76
2023/08/25 03:20:14;;;;;;;32.48;14.65;;;21.60;99.90;;;;;;930089;153;27337;-76
2023/08/25 03:22:41;;;;;;;34.08;14.23;;;21.70;99.90;;;;;;930517;151;27357;-76
2023/08/25 03:25:07;;;;;;;38.53;14.25;;;21.70;99.90;;;;;;942744;149;27433;-76
2023/08/25 03:27:36;;;;;;;20.80;11.68;;;21.70;99.90;;;;;;927649;152;27358;-76
2023/08/25 03:30:00;;;;;;;20.05;11.65;;;21.70;99.90;;;;;;944907;149;27442;-76
2023/08/25 03:32:27;;;;;;;16.90;11.65;;;21.70;99.90;;;;;;930304;151;28394;-76
2023/08/25 03:34:54;;;;;;;21.37;11.20;;;21.80;99.90;;;;;;930460;152;27444;-76
2023/08/25 03:37:20;;;;;;;13.10;10.53;;;21.80;99.90;;;;;;944013;149;27390;-76
2023/08/25 03:39:47;;;;;;;25.23;11.60;;;21.80;99.90;;;;;;943566;151;27351;-76
2023/08/25 03:42:13;;;;;;;12.93;10.68;;;21.80;99.90;;;;;;930588;152;27409;-76
2023/08/25 03:44:40;;;;;;;20.35;9.85;;;21.80;99.90;;;;;;931243;152;27761;-76
2023/08/25 03:47:07;;;;;;;16.45;10.15;;;21.80;99.90;;;;;;931616;152;27346;-76
2023/08/25 03:49:34;;;;;;;27.00;10.60;;;21.80;99.90;;;;;;931655;152;27294;-76
2023/08/25 03:52:00;;;;;;;15.15;10.40;;;21.80;99.90;;;;;;932670;151;27362;-76
2023/08/25 03:54:31;;;;;;;23.07;10.98;;;21.80;99.90;;;;;;927079;151;27390;-76
2023/08/25 03:56:53;;;;;;;25.62;10.50;;;21.80;99.90;;;;;;933782;149;27324;-76
2023/08/25 03:59:19;;;;;;;14.83;10.70;;;21.80;99.90;;;;;;917501;152;27460;-76
2023/08/25 04:01:46;;;;;;;13.05;9.33;;;21.80;99.90;;;;;;935711;149;27374;-76
2023/08/25 04:04:13;;;;;;;16.37;9.83;;;21.80;99.90;;;;;;932707;150;27472;-76
2023/08/25 04:06:39;;;;;;;12.78;9.65;;;21.80;99.90;;;;;;941158;149;27342;-76
2023/08/25 04:09:06;;;;;;;15.68;9.88;;;21.80;99.90;;;;;;940955;150;27318;-76
2023/08/25 04:11:32;;;;;;;15.38;8.33;;;21.80;99.90;;;;;;938404;149;27452;-76
2023/08/25 04:13:59;;;;;;;14.15;8.40;;;21.80;99.90;;;;;;934774;151;27473;-76
2023/08/25 04:16:26;;;;;;;8.88;7.92;;;21.80;99.90;;;;;;934245;151;27303;-76
2023/08/25 04:18:52;;;;;;;8.20;7.50;;;21.90;99.90;;;;;;934289;151;27450;-76
2023/08/25 04:21:19;;;;;;;10.48;7.62;;;21.90;99.90;;;;;;933708;151;27436;-76
2023/08/25 04:23:45;;;;;;;7.90;7.20;;;21.90;99.90;;;;;;935405;151;27378;-76
2023/08/25 04:26:12;;;;;;;8.50;7.70;;;21.90;99.90;;;;;;933743;151;27777;-76
2023/08/25 04:28:39;;;;;;;11.73;7.28;;;21.90;99.90;;;;;;935344;151;27358;-76
2023/08/25 04:31:05;;;;;;;7.83;7.20;;;21.90;99.90;;;;;;934890;150;27293;-76
2023/08/25 04:33:32;;;;;;;9.90;6.72;;;21.90;99.90;;;;;;935714;151;27354;-76
2023/08/25 04:35:58;;;;;;;18.00;8.15;;;21.90;99.90;;;;;;935748;151;27378;-76
2023/08/25 04:38:25;;;;;;;9.83;7.37;;;21.90;99.90;;;;;;934139;151;27432;-76
2023/08/25 04:40:52;;;;;;;12.58;8.15;;;21.90;99.90;;;;;;934336;151;27296;-76
2023/08/25 04:43:18;;;;;;;11.03;7.58;;;21.90;99.90;;;;;;935075;151;27430;-76
2023/08/25 04:45:45;;;;;;;14.13;8.48;;;21.90;99.90;;;;;;929768;151;27399;-76
2023/08/25 04:48:11;;;;;;;7.15;6.45;;;22.00;99.90;;;;;;922695;153;27457;-76
2023/08/25 04:50:38;;;;;;;11.03;7.97;;;22.00;99.90;;;;;;922787;153;27252;-76
2023/08/25 04:53:04;;;;;;;10.63;7.60;;;22.00;99.90;;;;;;921412;153;27426;-76
2023/08/25 04:55:31;;;;;;;9.35;7.58;;;22.00;99.90;;;;;;936189;152;27369;-76
2023/08/25 04:57:58;;;;;;;8.30;7.58;;;22.00;99.90;;;;;;927159;151;27481;-76
2023/08/25 05:00:24;;;;;;;10.13;7.70;;;22.10;99.90;;;;;;923747;153;27323;-76
2023/08/25 05:02:51;;;;;;;8.75;7.08;;;22.10;99.90;;;;;;936232;152;27357;-76
2023/08/25 05:05:17;;;;;;;8.05;7.33;;;22.20;99.90;;;;;;938002;150;27347;-76
2023/08/25 05:07:45;;;;;;;7.85;7.15;;;22.20;99.90;;;;;;923947;153;27899;-76
2023/08/25 05:10:11;;;;;;;7.75;7.20;;;22.30;99.90;;;;;;923459;152;27514;-76
2023/08/25 05:12:37;;;;;;;7.72;7.00;;;22.30;99.90;;;;;;923223;152;27812;-74
2023/08/25 05:15:04;;;;;;;7.83;7.12;;;22.40;99.90;;;;;;937783;150;27316;-74
2023/08/25 05:17:30;;;;;;;8.53;6.92;;;22.40;99.90;;;;;;923712;152;27396;-76
2023/08/25 05:19:57;;;;;;;6.55;6.03;;;22.40;99.90;;;;;;923850;152;27401;-73
2023/08/25 05:22:24;;;;;;;6.83;6.22;;;22.40;99.90;;;;;;923891;152;27409;-74
2023/08/25 05:24:50;;;;;;;7.42;5.95;;;22.40;99.90;;;;;;923144;153;27412;-73
2023/08/25 05:27:17;;;;;;;6.70;6.20;;;22.40;99.90;;;;;;923060;152;27347;-74
2023/08/25 05:29:44;;;;;;;8.75;7.95;;;22.30;99.90;;;;;;935537;150;27419;-74
2023/08/25 05:32:10;;;;;;;7.00;6.30;;;22.30;99.90;;;;;;936056;150;27762;-73
2023/08/25 05:34:37;;;;;;;6.53;6.03;;;22.20;99.90;;;;;;919431;153;27307;-74
2023/08/25 05:37:03;;;;;;;6.83;6.28;;;22.20;99.90;;;;;;936666;152;27329;-76
2023/08/25 05:39:30;;;;;;;7.67;6.87;;;22.10;99.90;;;;;;937877;150;27444;-75
2023/08/25 05:41:56;;;;;;;7.08;6.58;;;22.10;99.90;;;;;;922760;153;27895;-73
2023/08/25 05:44:23;;;;;;;7.90;7.25;;;22.10;99.90;;;;;;936489;151;27315;-74
2023/08/25 05:46:50;;;;;;;7.10;6.42;;;22.10;99.90;;;;;;922201;151;27382;-74
2023/08/25 05:49:16;;;;;;;7.72;6.97;;;22.10;99.90;;;;;;936326;149;27418;-75
2023/08/25 05:51:43;;;;;;;7.47;6.87;;;22.10;99.90;;;;;;933578;150;27362;-76
2023/08/25 05:54:10;;;;;;;6.65;6.05;;;22.10;99.90;;;;;;940245;151;27373;-74
2023/08/25 05:56:36;;;;;;;7.20;6.50;;;22.10;99.90;;;;;;941269;151;27324;-73
2023/08/25 05:59:02;;;;;;;7.25;6.65;;;22.10;99.90;;;;;;932379;151;27263;-73
2023/08/25 06:01:29;;;;;;;6.30;5.90;;;22.10;99.90;;;;;;932275;150;27768;-77
2023/08/25 06:03:56;;;;;;;6.85;6.33;;;22.10;99.90;;;;;;918496;152;27380;-74
2023/08/25 06:06:22;;;;;;;7.03;6.45;;;22.10;99.90;;;;;;929008;151;27437;-74
2023/08/25 06:08:49;;;;;;;6.92;6.42;;;22.10;99.90;;;;;;933309;149;28026;-76
2023/08/25 06:11:15;;;;;;;7.15;6.55;;;22.10;99.90;;;;;;931325;150;27340;-77
2023/08/25 06:13:42;;;;;;;6.97;6.47;;;22.00;99.90;;;;;;935751;149;27336;-74
2023/08/25 06:16:09;;;;;;;7.50;6.53;;;22.00;99.90;;;;;;935097;149;27414;-75
2023/08/25 06:18:35;;;;;;;7.17;6.62;;;22.00;99.90;;;;;;919789;152;27327;-76
2023/08/25 06:21:02;;;;;;;6.83;6.25;;;22.00;99.90;;;;;;935496;149;27388;-77
2023/08/25 06:23:28;;;;;;;7.08;6.47;;;22.10;99.90;;;;;;935826;149;27335;-77
2023/08/25 06:25:55;;;;;;;7.03;6.42;;;22.10;99.90;;;;;;915599;153;27429;-77
2023/08/25 06:28:21;;;;;;;6.97;6.33;;;22.10;99.90;;;;;;935126;149;27526;-77
2023/08/25 06:30:51;;;;;;;6.92;6.17;;;22.10;99.90;;;;;;930694;150;27344;-77
2023/08/25 06:33:18;;;;;;;6.85;6.25;;;22.10;99.90;;;;;;916138;153;27414;-77
2023/08/25 06:35:44;;;;;;;7.28;6.67;;;22.10;99.90;;;;;;917562;153;27313;-82
2023/08/25 06:38:11;;;;;;;7.45;6.85;;;22.10;99.90;;;;;;916661;153;27448;-82
2023/08/25 06:40:37;;;;;;;7.72;7.12;;;22.10;99.90;;;;;;916018;153;27463;-82
2023/08/25 06:43:04;;;;;;;6.80;6.25;;;22.10;99.90;;;;;;934292;149;27310;-80
2023/08/25 06:45:31;;;;;;;6.97;6.37;;;22.10;99.90;;;;;;940132;149;27433;-79
2023/08/25 06:47:57;;;;;;;7.15;6.58;;;22.10;99.90;;;;;;929509;151;27416;-80
2023/08/25 06:50:24;;;;;;;7.85;7.25;;;22.20;99.90;;;;;;929965;151;27431;-80
2023/08/25 06:52:51;;;;;;;8.23;7.20;;;22.20;99.90;;;;;;929866;151;27411;-82
2023/08/25 06:55:20;;;;;;;9.38;8.40;;;22.20;99.90;;;;;;925108;152;27383;-82
2023/08/25 06:57:44;;;;;;;7.92;7.12;;;22.30;99.90;;;;;;941306;149;27294;-83
2023/08/25 07:00:12;;;;;;;8.75;8.05;;;22.30;99.90;;;;;;931266;151;27299;-81
2023/08/25 07:02:39;;;;;;;10.28;9.33;;;22.30;99.90;;;;;;942840;149;27396;-82
2023/08/25 07:05:04;;;;;;;8.28;7.58;;;22.40;99.90;;;;;;930040;151;27462;-82
2023/08/25 07:07:31;;;;;;;7.53;6.92;;;22.40;99.90;;;;;;929879;151;27331;-82
2023/08/25 07:09:57;;;;;;;7.85;7.17;;;22.50;99.90;;;;;;930020;151;27324;-82
2023/08/25 07:12:23;;;;;;;7.55;6.85;;;22.50;99.90;;;;;;929999;152;27440;-82
2023/08/25 07:14:50;;;;;;;7.47;6.87;;;22.60;99.90;;;;;;930086;153;27349;-80
2023/08/25 07:17:16;;;;;;;7.80;6.92;;;22.60;99.90;;;;;;929548;151;27764;-82
2023/08/25 07:19:43;;;;;;;7.53;6.87;;;22.60;99.90;;;;;;944283;149;27296;-82
2023/08/25 07:22:10;;;;;;;7.50;6.90;;;22.70;99.90;;;;;;930075;154;27356;-81
2023/08/25 07:24:36;;;;;;;6.97;6.37;;;22.80;99.90;;;;;;930708;153;27348;-80
2023/08/25 07:27:03;;;;;;;6.92;6.22;;;22.90;99.90;;;;;;930833;153;27392;-82
2023/08/25 07:29:29;;;;;;;6.83;6.20;;;22.90;99.90;;;;;;930425;151;27372;-82
2023/08/25 07:31:56;;;;;;;7.25;6.70;;;23.00;99.90;;;;;;930538;154;27311;-78
2023/08/25 07:34:22;;;;;;;7.20;6.70;;;23.10;99.90;;;;;;926920;152;27356;-79
2023/08/25 07:36:49;;;;;;;6.60;5.97;;;23.10;99.90;;;;;;926137;152;27359;-77
2023/08/25 07:39:16;;;;;;;7.12;6.45;;;23.20;99.90;;;;;;943770;150;27322;-78
2023/08/25 07:41:42;;;;;;;6.28;5.78;;;23.30;99.90;;;;;;931560;151;27400;-77
2023/08/25 07:44:09;;;;;;;7.17;5.85;;;23.40;99.90;;;;;;943608;150;27370;-80
2023/08/25 07:46:38;;;;;;;6.05;5.60;;;23.50;99.90;;;;;;941623;149;27459;-80
2023/08/25 07:49:02;;;;;;;7.47;6.78;;;23.60;99.90;;;;;;918341;153;27572;-78
2023/08/25 07:51:29;;;;;;;5.78;5.40;;;23.80;99.90;;;;;;934660;149;27385;-78
2023/08/25 07:53:55;;;;;;;6.20;5.70;;;23.80;99.90;;;;;;934622;149;27451;-78
2023/08/25 07:56:22;;;;;;;6.58;6.00;;;23.90;99.90;;;;;;933998;150;27425;-79
2023/08/25 07:58:48;;;;;;;5.72;5.22;;;24.00;99.90;;;;;;933379;149;27452;-77
2023/08/25 08:01:15;;;;;;;6.12;5.67;;;24.10;99.90;;;;;;933778;149;28842;-77
2023/08/25 08:03:42;;;;;;;6.15;5.55;;;24.20;99.90;;;;;;935166;149;27305;-77
2023/08/25 08:06:08;;;;;;;5.40;4.97;;;24.30;99.90;;;;;;934937;150;27304;-78
2023/08/25 08:08:35;;;;;;;5.78;5.25;;;24.30;99.90;;;;;;929129;150;27393;-80
2023/08/25 08:11:01;;;;;;;5.03;4.62;;;24.40;99.90;;;;;;926724;151;27457;-77
2023/08/25 08:13:28;;;;;;;5.70;5.20;;;24.50;99.90;;;;;;928549;151;27339;-77
2023/08/25 08:15:55;;;;;;;5.30;4.80;;;24.60;99.90;;;;;;935255;149;27321;-78
2023/08/25 08:18:21;;;;;;;4.80;4.40;;;24.70;99.90;;;;;;933870;150;27273;-79
2023/08/25 08:20:48;;;;;;;4.87;4.35;;;24.80;99.90;;;;;;928784;151;27455;-77
2023/08/25 08:23:15;;;;;;;5.50;4.80;;;24.90;99.90;;;;;;935917;149;28360;-78
2023/08/25 08:25:41;;;;;;;4.35;4.00;;;25.20;99.90;;;;;;935785;150;27420;-77
2023/08/25 08:28:08;;;;;;;5.15;4.37;;;25.40;99.90;;;;;;936267;149;27406;-78
2023/08/25 08:30:35;;;;;;;4.75;4.35;;;25.70;99.90;;;;;;933243;149;27370;-77
2023/08/25 08:33:02;;;;;;;4.83;4.10;;;26.00;99.90;;;;;;931504;150;27359;-78
2023/08/25 08:35:28;;;;;;;4.40;4.00;;;26.30;99.90;;;;;;940735;151;27347;-75
2023/08/25 08:37:54;;;;;;;5.75;3.75;;;26.50;99.90;;;;;;931538;151;27491;-76
2023/08/25 08:40:21;;;;;;;4.17;3.80;;;26.80;99.90;;;;;;918110;152;27280;-76
2023/08/25 08:42:48;;;;;;;4.37;3.90;;;27.10;99.90;;;;;;918520;152;27307;-78
2023/08/25 08:45:14;;;;;;;5.10;3.62;;;27.50;99.90;;;;;;920052;152;26291;-78
2023/08/25 08:47:41;;;;;;;3.45;3.20;;;28.00;99.90;;;;;;921521;151;27479;-78
2023/08/25 08:50:07;;;;;;;3.25;3.05;;;28.60;99.90;;;;;;926333;151;27386;-78
2023/08/25 08:52:34;;;;;;;4.83;3.10;;;29.30;99.90;;;;;;940449;152;26379;-77
2023/08/25 08:55:00;;;;;;;4.53;2.72;;;30.10;99.90;;;;;;941183;149;27475;-77
2023/08/25 08:57:27;;;;;;;2.92;2.65;;;30.80;99.90;;;;;;940953;152;26248;-79
2023/08/25 08:59:54;;;;;;;3.55;2.80;;;31.50;99.90;;;;;;924992;152;27377;-78
2023/08/25 09:02:23;;;;;;;2.92;2.58;;;32.00;99.90;;;;;;930219;151;26288;-78
2023/08/25 09:04:53;;;;;;;3.05;2.35;;;32.40;99.90;;;;;;929163;151;27397;-79
2023/08/25 09:07:19;;;;;;;3.62;2.37;;;32.90;99.90;;;;;;929389;151;27461;-78
2023/08/25 09:09:46;;;;;;;2.45;2.20;;;33.30;99.90;;;;;;929472;151;26294;-77
2023/08/25 09:12:13;;;;;;;3.15;2.17;;;33.70;99.90;;;;;;929369;151;26266;-79
2023/08/25 09:14:39;;;;;;;2.52;2.30;;;34.10;98.20;;;;;;929887;151;26249;-77
2023/08/25 09:17:09;;;;;;;2.20;2.00;;;34.40;94.20;;;;;;929727;151;26345;-79
2023/08/25 09:19:32;;;;;;;2.72;2.40;;;34.50;90.80;;;;;;928237;151;26230;-79
2023/08/25 09:21:59;;;;;;;3.08;2.40;;;34.50;85.90;;;;;;929300;151;27308;-78
2023/08/25 09:24:25;;;;;;;2.83;2.35;;;34.30;83.70;;;;;;928473;151;27323;-78
2023/08/25 09:26:52;;;;;;;3.80;2.20;;;34.10;81.90;;;;;;929520;151;26360;-78
2023/08/25 09:29:19;;;;;;;2.80;2.50;;;33.90;82.90;;;;;;928836;151;27363;-78
2023/08/25 09:31:45;;;;;;;2.20;2.10;;;33.70;85.70;;;;;;943163;149;27847;-79
2023/08/25 09:34:13;;;;;;;2.08;1.90;;;33.60;87.50;;;;;;942288;150;26292;-78
2023/08/25 09:36:53;;;;;;;3.17;2.10;;;33.70;88.60;;;;;;941672;150;27081;-77
2023/08/25 09:39:20;;;;;;;2.47;2.10;;;33.80;87.50;;;;;;928645;151;26254;-77
2023/08/25 09:41:46;;;;;;;2.75;2.05;;;33.90;87.80;;;;;;927752;152;26197;-78
2023/08/25 09:44:13;;;;;;;2.02;1.90;;;34.00;84.60;;;;;;939844;149;27399;-78
2023/08/25 09:46:39;;;;;;;2.58;2.22;;;34.10;83.70;;;;;;940378;149;26353;-78
2023/08/25 09:49:06;;;;;;;2.05;1.82;;;34.20;84.50;;;;;;938451;150;26482;-79
2023/08/25 09:51:35;;;;;;;6.08;1.90;;;34.40;83.30;;;;;;937199;151;26348;-80
2023/08/25 09:54:12;;;;;;;1.92;1.77;;;34.60;83.00;;;;;;938459;150;26362;-80
2023/08/25 09:56:38;;;;;;;1.55;1.45;;;34.80;82.10;;;;;;937972;151;26379;-79
2023/08/25 09:59:04;;;;;;;2.25;1.50;;;35.00;78.50;;;;;;937307;151;27866;-80
2023/08/25 10:01:40;;;;;;;1.57;1.27;;;35.20;75.50;;;;;;937323;150;26390;-81
2023/08/25 10:04:09;;;;;;;1.45;1.25;;;35.30;72.60;;;;;;937646;151;26298;-80
2023/08/25 10:06:33;;;;;;;3.15;1.40;;;35.20;71.20;;;;;;936158;151;26264;-79
2023/08/25 10:08:59;;;;;;;2.10;1.32;;;35.20;70.20;;;;;;938324;149;26420;-80
2023/08/25 10:11:29;;;;;;;1.98;1.80;;;35.20;69.60;;;;;;937054;150;26643;-80
2023/08/25 10:13:58;;;;;;;1.30;1.22;;;35.10;68.90;;;;;;937730;151;27444;-80
2023/08/25 10:16:22;;;;;;;1.50;1.40;;;35.00;68.60;;;;;;937226;150;26328;-78
2023/08/25 10:18:48;;;;;;;1.77;1.30;;;34.80;68.10;;;;;;935921;151;27375;-80
2023/08/25 10:21:15;;;;;;;2.47;1.47;;;34.80;67.90;;;;;;936968;150;28390;-77
2023/08/25 10:23:42;;;;;;;1.82;1.72;;;34.70;67.60;;;;;;937395;151;26350;-79
2023/08/25 10:26:08;;;;;;;1.20;1.20;;;34.60;67.90;;;;;;936443;150;27358;-80
2023/08/25 10:28:35;;;;;;;2.17;1.40;;;34.60;67.70;;;;;;936534;150;26272;-77
2023/08/25 10:31:01;;;;;;;1.50;1.40;;;34.60;67.30;;;;;;936663;150;27383;-78
2023/08/25 10:33:28;;;;;;;1.52;1.40;;;34.50;66.60;;;;;;934358;151;26727;-79
2023/08/25 10:35:54;;;;;;;1.92;1.60;;;34.50;66.00;;;;;;934582;150;27433;-80
2023/08/25 10:38:22;;;;;;;2.22;1.65;;;34.40;65.80;;;;;;938420;150;27853;-79
2023/08/25 10:40:53;;;;;;;1.30;1.20;;;34.30;65.70;;;;;;936175;151;27400;-80
2023/08/25 10:43:32;;;;;;;1.40;1.30;;;34.20;66.70;;;;;;937540;150;26258;-81
2023/08/25 10:46:02;;;;;;;1.37;1.27;;;34.10;66.30;;;;;;938269;151;27412;-80
2023/08/25 10:48:28;;;;;;;1.72;1.60;;;34.00;66.40;;;;;;936847;151;27375;-77
2023/08/25 10:51:09;;;;;;;2.20;1.60;;;34.00;66.30;;;;;;930604;151;27477;-80
2023/08/25 10:53:51;;;;;;;3.50;1.70;;;33.90;66.70;;;;;;930126;151;27385;-79
2023/08/25 10:56:18;;;;;;;1.75;1.42;;;34.00;67.10;;;;;;929952;153;27476;-79
2023/08/25 10:59:06;;;;;;;1.62;1.52;;;34.10;67.00;;;;;;930571;151;27346;-77
2023/08/25 11:01:38;;;;;;;1.40;1.30;;;34.10;66.20;;;;;;923358;152;27377;-78
2023/08/25 11:04:08;;;;;;;1.98;1.60;;;34.20;66.20;;;;;;934579;151;27375;-79
2023/08/25 11:06:46;;;;;;;1.32;1.20;;;34.10;65.80;;;;;;936254;150;27308;-79
2023/08/25 11:09:18;;;;;;;1.98;1.87;;;34.10;65.00;;;;;;922664;152;27552;-77
2023/08/25 11:11:48;;;;;;;1.80;1.65;;;34.10;64.80;;;;;;933330;150;27324;-78
2023/08/25 11:14:15;;;;;;;1.70;1.60;;;34.10;64.70;;;;;;935973;150;27328;-79
2023/08/25 11:16:41;;;;;;;1.30;1.30;;;34.00;64.50;;;;;;935980;151;27261;-79
2023/08/25 11:19:11;;;;;;;1.57;1.40;;;34.00;64.30;;;;;;937892;150;27400;-78
2023/08/25 11:21:37;;;;;;;2.02;1.65;;;33.90;63.60;;;;;;923252;153;27374;-77
2023/08/25 11:24:04;;;;;;;1.50;1.40;;;33.90;63.50;;;;;;923102;152;27500;-77
2023/08/25 11:26:34;;;;;;;1.57;1.47;;;33.80;63.60;;;;;;938826;150;27694;-79
2023/08/25 11:28:57;;;;;;;1.87;1.60;;;33.60;63.40;;;;;;923284;155;28005;-78
2023/08/25 11:31:24;;;;;;;3.52;1.60;;;33.60;63.70;;;;;;936178;150;27307;-78
2023/08/25 11:33:54;;;;;;;1.40;1.30;;;33.50;63.00;;;;;;917414;154;27381;-77
2023/08/25 11:36:17;;;;;;;1.52;1.45;;;33.40;62.90;;;;;;922290;152;27319;-77
2023/08/25 11:38:46;;;;;;;1.57;1.47;;;33.40;62.40;;;;;;923545;153;27384;-78
2023/08/25 11:41:14;;;;;;;3.25;1.50;;;33.30;62.10;;;;;;921893;155;27368;-76
2023/08/25 11:43:39;;;;;;;1.65;1.55;;;33.20;62.30;;;;;;923393;154;27401;-77
2023/08/25 11:46:06;;;;;;;2.15;1.42;;;33.20;62.20;;;;;;923225;154;27328;-77
2023/08/25 11:48:35;;;;;;;1.62;1.45;;;33.10;62.00;;;;;;935254;149;27279;-77
2023/08/25 11:51:02;;;;;;;1.70;1.55;;;33.10;61.40;;;;;;933649;148;27451;-76
2023/08/25 11:53:28;;;;;;;1.57;1.47;;;33.00;61.30;;;;;;919005;153;27367;-77
2023/08/25 11:55:58;;;;;;;2.87;1.55;;;32.90;61.00;;;;;;919718;153;27312;-77
2023/08/25 11:58:30;;;;;;;2.22;1.60;;;32.80;60.70;;;;;;930931;151;27459;-78
2023/08/25 12:01:06;;;;;;;3.98;1.77;;;32.70;60.70;;;;;;920069;153;27259;-77
2023/08/25 12:03:32;;;;;;;2.83;1.40;;;32.50;60.90;;;;;;926941;151;27354;-80
2023/08/25 12:05:59;;;;;;;1.90;1.70;;;32.40;61.10;;;;;;926489;151;27389;-79
2023/08/25 12:08:25;;;;;;;1.77;1.60;;;32.30;61.10;;;;;;934586;149;27400;-80
2023/08/25 12:10:55;;;;;;;2.75;1.70;;;32.20;61.20;;;;;;931897;150;27265;-77
2023/08/25 12:13:29;;;;;;;2.00;1.77;;;32.10;61.50;;;;;;938760;150;27355;-78
2023/08/25 12:15:54;;;;;;;1.77;1.67;;;32.00;61.40;;;;;;935990;149;27352;-78
2023/08/25 12:18:21;;;;;;;1.85;1.42;;;32.00;61.60;;;;;;917507;153;27424;-78
2023/08/25 12:20:47;;;;;;;2.27;1.70;;;31.90;61.80;;;;;;935125;149;27407;-79
2023/08/25 12:23:14;;;;;;;2.67;1.72;;;31.90;62.90;;;;;;934395;149;27322;-77
2023/08/25 12:25:43;;;;;;;1.67;1.55;;;31.90;62.10;;;;;;934302;149;27341;-77
2023/08/25 12:28:13;;;;;;;1.80;1.70;;;31.90;62.60;;;;;;932448;150;27371;-79
2023/08/25 12:30:36;;;;;;;1.72;1.50;;;31.90;62.70;;;;;;933264;149;27457;-79
2023/08/25 12:33:04;;;;;;;1.77;1.55;;;32.00;62.90;;;;;;935948;149;26270;-76
2023/08/25 12:35:30;;;;;;;1.60;1.50;;;32.10;62.50;;;;;;934959;149;27346;-79
2023/08/25 12:37:56;;;;;;;2.30;2.10;;;32.10;62.50;;;;;;930613;150;27359;-78
2023/08/25 12:40:24;;;;;;;2.60;1.72;;;32.20;62.00;;;;;;935732;149;27285;-77